Terminal Aerodrome Forecast
Issued by NWS Topeka, KS

Home | Current Version | Previous Version | Text Only | Print | Product List | Glossary Off
Versions: 1 2 3 4 5 6 7 8 9 10 11 12 13 14 15 16 17 18 19 20 21 22 23 24

855
FTUS43 KTOP 252320
TAFTOP
TAF
KTOP 252320Z 2600/2624 33007KT P6SM OVC009
     FM260900 29003KT 3SM BR OVC005
     FM261600 30003KT P6SM OVC015
     FM262000 06004KT P6SM SCT040=

USA.gov is the U.S. government's official web portal to all federal, state and local government web resources and services.